Keams Canyon, Arizona
Current Conditions -  °F | °C
As of 4:56 AM on Friday 24 Oct 2014 (Local Time) from KINW Reporting Station
Clear Clear  
Wind Chill: 43°   Ceiling: Unl
Heat Index: 43°   Visibility: 10mi
Dew Point: 37°   Wind: 3mph
Humidity: 80%   Direction: 130°SE
Pressure: 30.27"   Gusts: NA
Location:  35.84°N, 110.24°W
Report Text: KINW 241156Z AUTO 13003KT 10SM CLR 06/03 A3027 RMK AO2 SLP206 T00610028 10111 20061 53002
Loading
Personal Weather Stations






























Interactive Weather Map
Tropical Storm Tracking
New forecast layout! Learn more

10-Day Weather Forecast

Advertisements
Track Severe Weather on mobile